Time;durP1;ratioP1;P1;durP2;ratioP2;P2;SDS_P1;SDS_P2;PMS_P1;PMS_P2;Temp;Humidity;BMP_temperature;BMP_pressure;BME280_temperature;BME280_humidity;BME280_pressure;Samples;Min_cycle;Max_cycle;Signal;HPM_P1;HPM_P2
2021/04/18 00:02:04;;;;;;;3.97;2.30;;;8.10;99.90;;;;;;5027780;28;20299;-53
2021/04/18 00:04:31;;;;;;;8.30;2.47;;;8.20;99.90;;;;;;5027050;28;20275;-53
2021/04/18 00:06:57;;;;;;;7.53;2.73;;;8.20;99.90;;;;;;5022788;28;20210;-52
2021/04/18 00:09:24;;;;;;;9.40;2.40;;;8.20;99.90;;;;;;5029566;28;20235;-52
2021/04/18 00:11:50;;;;;;;5.43;2.47;;;8.10;1.00;;;;;;5030434;28;20248;-52
2021/04/18 00:14:17;;;;;;;5.30;2.43;;;8.10;99.90;;;;;;5028950;28;20216;-52
2021/04/18 00:16:43;;;;;;;8.43;2.53;;;8.30;99.90;;;;;;5034505;28;20252;-52
2021/04/18 00:19:10;;;;;;;3.53;2.03;;;8.30;1.00;;;;;;5029751;28;20325;-52
2021/04/18 00:21:36;;;;;;;4.00;2.03;;;8.00;1.00;;;;;;5032815;28;20239;-52
2021/04/18 00:24:03;;;;;;;5.83;2.47;;;8.00;1.00;;;;;;5028735;28;20288;-52
2021/04/18 00:26:29;;;;;;;5.40;2.40;;;8.00;1.00;;;;;;5029374;28;20232;-52
2021/04/18 00:28:56;;;;;;;10.47;2.60;;;8.00;1.00;;;;;;5025911;28;20200;-52
2021/04/18 00:31:22;;;;;;;5.63;2.80;;;8.00;1.00;;;;;;5032404;28;20230;-52
2021/04/18 00:33:49;;;;;;;9.67;3.00;;;8.10;1.00;;;;;;5028257;28;20201;-52
2021/04/18 00:36:24;;;;;;;7.07;2.63;;;8.00;1.00;;;;;;5029029;28;20208;-52
2021/04/18 00:38:51;;;;;;;5.43;2.90;;;8.00;1.00;;;;;;5025122;28;20197;-53
2021/04/18 00:41:17;;;;;;;8.43;3.67;;;8.10;1.00;;;;;;5024941;28;20286;-53
2021/04/18 00:43:45;;;;;;;8.47;3.20;;;7.90;1.00;;;;;;5028170;28;20240;-53
2021/04/18 00:46:12;;;;;;;5.57;2.90;;;7.80;1.00;;;;;;5025454;28;20217;-52
2021/04/18 00:48:42;;;;;;;6.50;2.40;;;7.70;1.00;;;;;;5029634;28;20240;-53
2021/04/18 00:51:13;;;;;;;6.03;2.70;;;7.70;1.00;;;;;;5028979;28;20231;-52
2021/04/18 00:53:40;;;;;;;7.57;2.87;;;7.80;1.00;;;;;;5028059;28;20249;-53
2021/04/18 00:56:07;;;;;;;5.77;3.30;;;7.90;1.00;;;;;;5026783;28;20272;-52
2021/04/18 00:58:34;;;;;;;7.33;3.27;;;7.70;1.00;;;;;;5027314;28;20217;-52
2021/04/18 01:01:02;;;;;;;5.70;2.73;;;7.60;1.00;;;;;;5026462;28;20306;-52
2021/04/18 01:03:28;;;;;;;6.43;3.17;;;7.80;4.50;;;;;;5031022;28;20222;-53
2021/04/18 01:05:54;;;;;;;6.10;2.50;;;7.80;99.90;;;;;;5032097;28;20285;-52
2021/04/18 01:08:21;;;;;;;5.67;2.80;;;7.90;99.90;;;;;;5037041;28;20208;-53
2021/04/18 01:10:47;;;;;;;7.93;3.00;;;8.00;99.90;;;;;;5031992;28;20310;-52
2021/04/18 01:13:14;;;;;;;6.20;2.80;;;8.10;99.90;;;;;;5030661;28;20324;-53
2021/04/18 01:15:40;;;;;;;5.00;3.20;;;7.90;99.90;;;;;;5030519;28;20246;-53
2021/04/18 01:18:07;;;;;;;5.97;3.50;;;8.00;99.90;;;;;;5029279;28;20198;-53
2021/04/18 01:20:34;;;;;;;6.33;3.20;;;8.10;99.90;;;;;;5028070;28;20555;-53
2021/04/18 01:23:00;;;;;;;4.50;2.67;;;8.10;99.90;;;;;;5031300;28;20266;-53
2021/04/18 01:25:27;;;;;;;5.10;2.90;;;8.10;99.90;;;;;;5033925;28;20203;-53
2021/04/18 01:27:55;;;;;;;6.93;2.80;;;8.10;99.90;;;;;;5034563;28;20612;-53
2021/04/18 01:30:24;;;;;;;8.67;3.37;;;8.10;99.90;;;;;;5030152;28;20201;-53
2021/04/18 01:32:57;;;;;;;5.47;3.63;;;8.00;99.90;;;;;;5037058;28;20257;-53
2021/04/18 01:35:25;;;;;;;7.97;3.57;;;8.10;99.90;;;;;;5029571;28;20887;-53
2021/04/18 01:37:51;;;;;;;5.70;3.13;;;8.20;99.90;;;;;;5032089;28;20589;-53
2021/04/18 01:40:20;;;;;;;5.03;3.63;;;8.30;99.90;;;;;;5030924;28;20705;-52
2021/04/18 01:42:47;;;;;;;8.50;4.00;;;8.10;99.90;;;;;;5029337;28;20197;-52
2021/04/18 01:45:16;;;;;;;7.67;3.83;;;8.10;99.90;;;;;;5031237;28;20228;-53
2021/04/18 01:47:42;;;;;;;4.90;3.30;;;8.10;99.90;;;;;;5028688;28;20713;-53
2021/04/18 01:50:13;;;;;;;9.03;4.60;;;8.10;99.90;;;;;;5026431;28;20303;-53
2021/04/18 01:52:40;;;;;;;5.10;3.43;;;8.10;99.90;;;;;;5030846;28;20220;-53
2021/04/18 01:55:08;;;;;;;6.60;4.03;;;8.00;99.90;;;;;;5030308;28;20262;-53
2021/04/18 01:57:34;;;;;;;7.93;3.73;;;7.90;99.90;;;;;;5031454;28;20197;-53
2021/04/18 02:00:05;;;;;;;9.27;3.90;;;7.70;99.90;;;;;;5028535;28;20659;-53
2021/04/18 02:02:31;;;;;;;7.70;4.00;;;7.80;99.90;;;;;;5028230;28;20315;-53
2021/04/18 02:04:58;;;;;;;5.83;3.80;;;7.70;99.90;;;;;;5031425;28;20216;-53
2021/04/18 02:07:24;;;;;;;6.73;3.53;;;7.70;99.90;;;;;;5030790;28;20204;-52
2021/04/18 02:09:51;;;;;;;11.13;4.00;;;7.70;99.90;;;;;;5029640;28;20561;-52
2021/04/18 02:12:17;;;;;;;9.77;4.67;;;7.60;99.90;;;;;;5029059;28;20762;-52
2021/04/18 02:14:43;;;;;;;8.27;3.90;;;7.70;99.90;;;;;;5030112;28;20289;-52
2021/04/18 02:17:09;;;;;;;7.57;3.20;;;7.80;99.90;;;;;;5028194;28;20207;-52
2021/04/18 02:19:36;;;;;;;8.87;4.07;;;7.80;99.90;;;;;;5029959;28;20207;-52
2021/04/18 02:22:03;;;;;;;11.33;4.20;;;7.70;99.90;;;;;;5024829;28;20213;-52
2021/04/18 02:24:29;;;;;;;5.73;3.87;;;7.60;99.90;;;;;;5030099;28;20652;-53
2021/04/18 02:26:55;;;;;;;10.53;4.50;;;7.50;99.90;;;;;;5029254;28;20637;-52
2021/04/18 02:29:22;;;;;;;6.53;4.10;;;7.40;99.90;;;;;;5028758;28;20201;-52
2021/04/18 02:31:48;;;;;;;7.90;4.20;;;7.40;99.90;;;;;;5030132;28;20675;-52
2021/04/18 02:34:14;;;;;;;7.50;4.70;;;7.40;99.90;;;;;;5029801;28;20267;-52
2021/04/18 02:36:41;;;;;;;6.03;4.17;;;7.40;99.90;;;;;;5026777;28;20285;-52
2021/04/18 02:39:07;;;;;;;6.83;4.67;;;7.40;99.90;;;;;;5031042;28;20269;-52
2021/04/18 02:41:34;;;;;;;6.43;3.90;;;7.30;99.90;;;;;;5026803;28;20234;-52
2021/04/18 02:44:00;;;;;;;7.20;4.00;;;7.30;99.90;;;;;;5025859;28;20239;-52
2021/04/18 02:46:27;;;;;;;6.10;4.17;;;7.00;99.90;;;;;;5026180;28;20294;-53
2021/04/18 02:48:53;;;;;;;10.20;5.33;;;6.90;99.90;;;;;;5025926;28;20201;-52
2021/04/18 02:51:20;;;;;;;7.33;4.77;;;7.00;99.90;;;;;;5027953;28;20700;-53
2021/04/18 02:53:46;;;;;;;7.73;4.70;;;7.10;99.90;;;;;;5027489;28;20549;-52
2021/04/18 02:56:12;;;;;;;12.17;5.13;;;7.10;99.90;;;;;;5027660;28;20366;-52
2021/04/18 02:58:39;;;;;;;12.13;4.87;;;7.10;99.90;;;;;;5029029;28;20267;-52
2021/04/18 03:01:05;;;;;;;6.87;5.13;;;7.10;99.90;;;;;;5028355;28;20859;-53
2021/04/18 03:03:32;;;;;;;7.20;4.60;;;7.20;99.90;;;;;;5029659;28;20201;-53
2021/04/18 03:05:59;;;;;;;6.60;4.50;;;7.20;99.90;;;;;;5025678;28;20349;-52
2021/04/18 03:08:25;;;;;;;9.27;4.50;;;7.20;99.90;;;;;;5029998;28;20258;-52
2021/04/18 03:10:51;;;;;;;8.67;4.73;;;7.10;99.90;;;;;;5026658;28;20200;-52
2021/04/18 03:13:17;;;;;;;11.13;5.07;;;7.00;99.90;;;;;;5029821;28;20276;-52
2021/04/18 03:15:45;;;;;;;7.63;4.47;;;7.10;99.90;;;;;;5027346;28;20885;-53
2021/04/18 03:18:12;;;;;;;9.57;4.80;;;7.10;99.90;;;;;;5024871;28;20213;-52
2021/04/18 03:20:38;;;;;;;11.13;4.93;;;7.20;99.90;;;;;;5028290;28;20197;-52
2021/04/18 03:23:05;;;;;;;9.50;4.87;;;7.10;99.90;;;;;;5027474;28;20231;-52
2021/04/18 03:25:32;;;;;;;9.60;5.20;;;7.20;99.90;;;;;;5027739;28;20563;-53
2021/04/18 03:27:58;;;;;;;6.00;4.80;;;7.10;99.90;;;;;;5025081;28;20740;-53
2021/04/18 03:30:24;;;;;;;10.63;4.90;;;7.10;99.90;;;;;;5027496;28;20336;-53
2021/04/18 03:32:51;;;;;;;6.50;4.73;;;6.90;99.90;;;;;;5031462;28;20206;-53
2021/04/18 03:35:17;;;;;;;10.47;5.20;;;7.00;99.90;;;;;;5027493;28;20204;-53
2021/04/18 03:37:44;;;;;;;11.00;5.63;;;7.10;99.90;;;;;;5028293;28;20279;-53
2021/04/18 03:40:11;;;;;;;7.73;5.00;;;7.10;99.90;;;;;;5023139;28;20274;-53
2021/04/18 03:42:37;;;;;;;8.77;5.47;;;7.00;99.90;;;;;;5027588;28;20188;-53
2021/04/18 03:45:05;;;;;;;11.43;5.57;;;7.10;99.90;;;;;;5027869;28;20654;-53
2021/04/18 03:47:31;;;;;;;8.13;4.57;;;7.10;99.90;;;;;;5026006;28;20597;-53
2021/04/18 03:49:58;;;;;;;10.27;5.87;;;7.10;99.90;;;;;;5028393;28;20524;-52
2021/04/18 03:52:25;;;;;;;11.27;6.03;;;7.10;99.90;;;;;;5027840;28;20189;-52
2021/04/18 03:54:51;;;;;;;8.90;5.93;;;7.00;99.90;;;;;;5026064;28;20285;-53
2021/04/18 03:57:17;;;;;;;8.47;5.67;;;7.00;99.90;;;;;;5023713;28;20257;-52
2021/04/18 03:59:44;;;;;;;10.00;5.67;;;6.90;99.90;;;;;;5027015;28;20318;-53
2021/04/18 04:02:10;;;;;;;11.17;6.10;;;6.80;99.90;;;;;;5029893;28;20293;-52
2021/04/18 04:04:37;;;;;;;9.57;5.47;;;6.90;99.90;;;;;;5027761;28;20202;-53
2021/04/18 04:07:04;;;;;;;9.73;6.30;;;6.90;99.90;;;;;;5023527;28;20206;-53
2021/04/18 04:09:30;;;;;;;6.43;5.20;;;6.80;99.90;;;;;;5029732;28;20196;-53
2021/04/18 04:11:58;;;;;;;7.33;5.97;;;6.80;99.90;;;;;;5030889;28;20201;-53
2021/04/18 04:14:25;;;;;;;11.10;6.20;;;6.70;99.90;;;;;;5026281;28;20272;-53
2021/04/18 04:16:51;;;;;;;15.77;6.23;;;6.80;99.90;;;;;;5025290;28;20269;-53
2021/04/18 04:19:17;;;;;;;12.47;6.07;;;6.80;99.90;;;;;;5031492;28;20269;-53
2021/04/18 04:21:44;;;;;;;12.63;6.30;;;6.70;99.90;;;;;;5029125;28;20289;-53
2021/04/18 04:24:10;;;;;;;17.27;7.10;;;6.80;99.90;;;;;;5026778;28;20210;-53
2021/04/18 04:26:36;;;;;;;8.97;5.83;;;6.80;99.90;;;;;;5033862;28;20249;-53
2021/04/18 04:29:03;;;;;;;8.40;5.40;;;6.70;99.90;;;;;;5026459;28;20302;-53
2021/04/18 04:31:29;;;;;;;6.67;4.97;;;6.70;99.90;;;;;;5032448;28;20664;-52
2021/04/18 04:33:57;;;;;;;8.93;5.07;;;6.40;99.90;;;;;;5028754;28;20256;-53
2021/04/18 04:36:23;;;;;;;6.97;5.00;;;5.60;99.90;;;;;;5023681;28;20573;-52
2021/04/18 04:38:50;;;;;;;5.23;4.77;;;5.30;99.90;;;;;;5028721;28;20930;-53
2021/04/18 04:41:16;;;;;;;6.07;4.97;;;4.90;99.90;;;;;;5032927;28;20226;-52
2021/04/18 04:43:45;;;;;;;5.23;4.43;;;5.10;99.90;;;;;;5031790;28;20208;-52
2021/04/18 04:46:12;;;;;;;5.47;4.80;;;5.10;99.90;;;;;;5031219;28;20225;-52
2021/04/18 04:48:40;;;;;;;6.60;4.20;;;4.80;99.90;;;;;;5034672;28;20294;-52
2021/04/18 04:51:06;;;;;;;6.73;5.00;;;4.70;99.90;;;;;;5030243;28;20336;-52
2021/04/18 04:53:32;;;;;;;6.67;4.93;;;4.50;99.90;;;;;;5031851;28;20337;-52
2021/04/18 04:56:00;;;;;;;5.67;4.90;;;4.70;99.90;;;;;;5032072;28;20703;-52
2021/04/18 04:58:26;;;;;;;6.67;4.40;;;5.00;99.90;;;;;;5031813;28;20189;-52
2021/04/18 05:00:53;;;;;;;7.17;5.10;;;4.90;99.90;;;;;;5031319;28;20196;-53
2021/04/18 05:03:23;;;;;;;5.30;4.80;;;4.90;99.90;;;;;;5031006;28;20323;-53
2021/04/18 05:05:50;;;;;;;5.37;4.47;;;5.20;99.90;;;;;;5031307;28;20539;-52
2021/04/18 05:08:17;;;;;;;5.60;4.40;;;5.20;99.90;;;;;;5030684;28;20620;-52
2021/04/18 05:10:43;;;;;;;5.30;4.20;;;4.50;99.90;;;;;;5033605;28;20329;-53
2021/04/18 05:13:09;;;;;;;5.30;4.80;;;4.10;99.90;;;;;;5030850;28;20254;-52
2021/04/18 05:15:36;;;;;;;5.30;4.30;;;3.90;99.90;;;;;;5033064;28;20224;-53
2021/04/18 05:18:03;;;;;;;4.83;4.33;;;4.00;99.90;;;;;;5030745;28;20201;-51
2021/04/18 05:20:30;;;;;;;4.83;4.43;;;4.00;99.90;;;;;;5028322;28;20290;-52
2021/04/18 05:22:57;;;;;;;5.13;4.63;;;4.10;99.90;;;;;;5031507;28;20286;-52
2021/04/18 05:25:24;;;;;;;6.43;4.77;;;4.20;99.90;;;;;;5033596;28;20636;-52
2021/04/18 05:27:50;;;;;;;6.23;4.97;;;4.60;99.90;;;;;;5032001;28;20246;-53
2021/04/18 05:30:17;;;;;;;5.57;4.90;;;4.90;99.90;;;;;;5030390;28;20251;-52
2021/04/18 05:32:44;;;;;;;6.60;4.83;;;5.00;99.90;;;;;;5030721;28;20188;-52
2021/04/18 05:35:11;;;;;;;7.20;5.53;;;5.20;99.90;;;;;;5027609;28;20282;-52
2021/04/18 05:37:37;;;;;;;6.37;5.77;;;4.90;99.90;;;;;;5018587;28;20608;-53
2021/04/18 05:40:05;;;;;;;11.90;8.40;;;4.80;99.90;;;;;;5028984;28;20204;-54
2021/04/18 05:42:31;;;;;;;14.67;9.10;;;5.40;99.90;;;;;;5028029;28;20605;-53
2021/04/18 05:44:58;;;;;;;14.40;9.60;;;5.50;99.90;;;;;;5030388;28;20220;-53
2021/04/18 05:47:24;;;;;;;15.73;9.57;;;5.80;99.90;;;;;;5032893;28;20295;-53
2021/04/18 05:49:53;;;;;;;17.40;10.00;;;5.70;99.90;;;;;;5030913;28;20209;-53
2021/04/18 05:52:19;;;;;;;14.53;9.93;;;5.90;99.90;;;;;;5026221;28;20274;-52
2021/04/18 05:54:46;;;;;;;12.80;9.37;;;6.00;99.90;;;;;;5031417;28;20270;-52
2021/04/18 05:57:13;;;;;;;14.13;9.13;;;6.20;99.90;;;;;;5031053;28;20318;-52
2021/04/18 05:59:39;;;;;;;10.87;7.23;;;6.30;99.90;;;;;;5032970;28;20493;-53
2021/04/18 06:02:06;;;;;;;13.50;7.70;;;6.00;99.90;;;;;;5023377;28;20255;-52
2021/04/18 06:04:32;;;;;;;12.20;8.43;;;6.00;99.90;;;;;;5030317;28;20192;-52
2021/04/18 06:06:59;;;;;;;9.30;7.13;;;5.90;99.90;;;;;;5028385;28;20641;-52
2021/04/18 06:09:26;;;;;;;8.40;7.33;;;6.00;99.90;;;;;;5029331;28;20652;-52
2021/04/18 06:11:53;;;;;;;11.43;7.30;;;6.00;99.90;;;;;;5030339;28;20740;-53
2021/04/18 06:14:20;;;;;;;8.13;6.53;;;6.10;99.90;;;;;;5031627;28;20281;-53
2021/04/18 06:16:48;;;;;;;11.77;6.37;;;6.20;99.90;;;;;;5027012;28;20267;-52
2021/04/18 06:19:16;;;;;;;8.67;7.10;;;6.20;99.90;;;;;;5031212;28;20204;-53
2021/04/18 06:21:43;;;;;;;11.40;7.33;;;6.30;99.90;;;;;;5030023;28;20864;-53
2021/04/18 06:24:10;;;;;;;10.03;7.30;;;6.40;99.90;;;;;;5027228;28;20271;-53
2021/04/18 06:26:36;;;;;;;8.63;6.80;;;6.60;99.90;;;;;;5025510;28;20228;-53
2021/04/18 06:29:03;;;;;;;10.77;8.23;;;6.60;99.90;;;;;;5031520;28;20229;-53
2021/04/18 06:31:29;;;;;;;10.37;7.50;;;6.60;99.90;;;;;;5029024;28;20629;-54
2021/04/18 06:33:55;;;;;;;9.13;6.43;;;6.50;99.90;;;;;;5029546;28;20344;-53
2021/04/18 06:36:22;;;;;;;12.00;8.33;;;6.80;99.90;;;;;;5031648;28;20688;-52
2021/04/18 06:38:48;;;;;;;11.97;7.67;;;6.90;99.90;;;;;;5029796;28;20572;-52
2021/04/18 06:41:22;;;;;;;12.93;8.17;;;6.90;99.90;;;;;;5027088;28;20205;-52
2021/04/18 06:43:50;;;;;;;14.80;7.93;;;6.60;99.90;;;;;;5026624;28;20200;-53
2021/04/18 06:46:20;;;;;;;12.03;7.63;;;6.90;99.90;;;;;;5028970;28;20610;-53
2021/04/18 06:48:47;;;;;;;13.47;8.37;;;7.00;99.90;;;;;;5029436;28;20245;-53
2021/04/18 06:51:18;;;;;;;13.80;9.13;;;7.30;99.90;;;;;;5020831;28;20933;-53
2021/04/18 06:53:47;;;;;;;17.60;8.37;;;7.40;99.90;;;;;;5029204;28;20644;-53
2021/04/18 06:56:14;;;;;;;13.00;8.50;;;7.50;99.90;;;;;;5016898;28;20848;-52
2021/04/18 06:58:40;;;;;;;16.67;8.80;;;7.50;1.00;;;;;;5024908;28;20205;-52
2021/04/18 07:01:06;;;;;;;12.17;8.13;;;7.40;1.00;;;;;;5025508;28;20205;-53
2021/04/18 07:03:33;;;;;;;11.53;8.70;;;7.40;1.00;;;;;;5025834;28;20207;-53
2021/04/18 07:06:00;;;;;;;11.97;8.33;;;7.40;99.90;;;;;;5024078;28;20205;-52
2021/04/18 07:08:34;;;;;;;14.00;8.40;;;7.20;99.90;;;;;;5021852;28;20726;-53
2021/04/18 07:11:19;;;;;;;12.07;8.13;;;7.10;99.90;;;;;;5026429;28;20237;-53
2021/04/18 07:13:46;;;;;;;13.10;8.93;;;7.10;99.90;;;;;;5030566;28;20627;-53
2021/04/18 07:16:27;;;;;;;14.00;9.40;;;7.10;99.90;;;;;;5022441;28;20278;-52
2021/04/18 07:18:55;;;;;;;12.80;8.07;;;7.20;99.90;;;;;;5023542;28;20317;-53
2021/04/18 07:21:23;;;;;;;12.70;8.43;;;7.40;99.90;;;;;;5023281;28;20199;-53
2021/04/18 07:23:49;;;;;;;13.83;8.33;;;7.30;99.90;;;;;;5030026;28;20689;-53
2021/04/18 07:26:27;;;;;;;10.27;7.10;;;7.10;99.90;;;;;;5025627;28;20227;-53
2021/04/18 07:29:18;;;;;;;12.97;7.30;;;7.30;99.90;;;;;;5024654;28;20589;-53
2021/04/18 07:31:45;;;;;;;10.87;6.67;;;7.40;99.90;;;;;;5028426;28;20236;-54
2021/04/18 07:34:20;;;;;;;9.67;6.50;;;7.50;99.90;;;;;;5025423;28;20605;-53
2021/04/18 07:37:05;;;;;;;10.80;6.07;;;7.30;99.90;;;;;;5025691;28;20303;-53
2021/04/18 07:39:46;;;;;;;10.27;6.70;;;7.40;99.90;;;;;;5022009;28;20264;-52
2021/04/18 07:42:36;;;;;;;9.40;6.23;;;7.40;99.90;;;;;;5022334;28;20208;-53
2021/04/18 07:45:11;;;;;;;10.67;6.90;;;7.70;99.90;;;;;;5022366;28;20555;-53
2021/04/18 07:47:41;;;;;;;9.20;7.13;;;7.80;99.90;;;;;;5028441;28;20577;-54
2021/04/18 07:50:10;;;;;;;9.57;6.97;;;7.80;99.90;;;;;;5024481;28;20294;-53
2021/04/18 07:52:41;;;;;;;11.43;7.53;;;7.90;99.90;;;;;;5027055;28;20274;-53
2021/04/18 07:55:09;;;;;;;9.27;6.93;;;7.90;99.90;;;;;;5024360;28;20659;-53
2021/04/18 07:57:35;;;;;;;11.50;6.90;;;8.20;99.90;;;;;;5026987;28;20695;-53
2021/04/18 08:00:04;;;;;;;8.77;7.13;;;8.30;99.90;;;;;;5022065;28;20296;-53
2021/04/18 08:02:31;;;;;;;10.27;7.77;;;8.20;99.90;;;;;;5025202;28;20564;-53
2021/04/18 08:04:58;;;;;;;13.23;8.00;;;8.30;99.90;;;;;;5023407;28;20232;-53
2021/04/18 08:07:24;;;;;;;12.33;7.77;;;8.40;99.90;;;;;;5029019;28;20212;-52
2021/04/18 08:10:23;;;;;;;9.83;7.67;;;8.60;99.90;;;;;;5025807;28;20681;-53
2021/04/18 08:13:07;;;;;;;10.77;7.40;;;8.70;99.90;;;;;;5026354;28;20246;-52
2021/04/18 08:15:39;;;;;;;15.03;7.10;;;8.90;99.90;;;;;;5026210;28;20749;-52
2021/04/18 08:18:14;;;;;;;12.77;7.60;;;8.50;99.90;;;;;;5026558;28;20656;-53
2021/04/18 08:20:44;;;;;;;13.37;8.40;;;8.90;99.90;;;;;;5026406;28;20310;-53
2021/04/18 08:23:17;;;;;;;11.43;8.30;;;9.20;99.90;;;;;;5027081;28;20229;-52
2021/04/18 08:26:09;;;;;;;11.87;7.50;;;9.10;99.90;;;;;;5027872;28;20664;-53
2021/04/18 08:28:53;;;;;;;10.17;7.67;;;8.80;99.90;;;;;;5022463;28;20204;-53
2021/04/18 08:31:28;;;;;;;13.07;7.10;;;8.60;99.90;;;;;;5030477;28;20193;-53
2021/04/18 08:33:57;;;;;;;12.47;7.33;;;8.80;99.90;;;;;;5029154;28;20262;-53
2021/04/18 08:36:29;;;;;;;13.67;7.03;;;8.70;99.90;;;;;;5021246;28;20228;-53
2021/04/18 08:38:59;;;;;;;14.07;8.17;;;8.90;99.90;;;;;;5026927;28;20298;-54
2021/04/18 08:41:41;;;;;;;13.00;7.97;;;9.40;99.90;;;;;;5027443;28;20553;-53
2021/04/18 08:44:15;;;;;;;14.40;8.47;;;10.00;99.90;;;;;;5026771;28;20236;-54
2021/04/18 08:46:42;;;;;;;11.93;8.33;;;10.60;99.90;;;;;;5027522;28;20202;-64
2021/04/18 08:49:10;;;;;;;11.07;8.30;;;10.70;1.00;;;;;;5021782;28;20200;-53
2021/04/18 08:51:38;;;;;;;15.53;8.63;;;10.80;1.00;;;;;;5026482;28;20725;-52
2021/04/18 08:54:06;;;;;;;9.10;7.50;;;10.90;1.00;;;;;;5027726;28;20215;-52
2021/04/18 08:56:53;;;;;;;11.57;8.73;;;10.50;99.90;;;;;;5027243;28;20314;-52
2021/04/18 08:59:21;;;;;;;11.87;8.77;;;10.20;99.90;;;;;;5027192;28;20204;-53
2021/04/18 09:02:01;;;;;;;11.70;8.93;;;9.90;99.90;;;;;;5028139;28;20192;-54
2021/04/18 09:04:29;;;;;;;10.90;7.63;;;9.70;1.00;;;;;;5030690;28;20424;-53
2021/04/18 09:06:55;;;;;;;11.40;6.90;;;10.10;99.90;;;;;;5022373;28;20501;-53
2021/04/18 09:09:22;;;;;;;9.03;7.73;;;10.40;99.90;;;;;;5029521;28;20249;-52
2021/04/18 09:11:50;;;;;;;9.93;7.63;;;10.60;1.00;;;;;;5024640;28;20224;-52
2021/04/18 09:14:38;;;;;;;11.57;7.47;;;10.80;1.00;;;;;;5024716;28;20265;-52
2021/04/18 09:17:09;;;;;;;9.70;6.90;;;10.70;1.00;;;;;;5022344;28;20347;-52
2021/04/18 09:19:35;;;;;;;12.70;8.27;;;11.30;99.90;;;;;;5030101;28;20505;-52
2021/04/18 09:22:05;;;;;;;10.97;7.63;;;11.10;99.90;;;;;;5032016;28;20226;-53
2021/04/18 09:24:37;;;;;;;13.33;8.90;;;11.60;1.00;;;;;;5028066;28;20192;-52
2021/04/18 09:27:16;;;;;;;13.50;8.60;;;11.50;1.00;;;;;;5029796;28;20522;-53
2021/04/18 09:29:58;;;;;;;12.90;7.87;;;11.90;1.00;;;;;;5031073;28;20625;-53
2021/04/18 09:32:27;;;;;;;16.63;9.43;;;12.50;99.90;;;;;;5030053;28;20261;-53
2021/04/18 09:34:54;;;;;;;13.03;8.13;;;11.90;1.00;;;;;;5028577;28;20245;-52
2021/04/18 09:37:35;;;;;;;11.43;8.27;;;12.10;99.90;;;;;;5033855;28;20229;-52
2021/04/18 09:40:06;;;;;;;11.73;7.37;;;12.50;99.90;;;;;;5032782;28;20200;-52
2021/04/18 09:42:34;;;;;;;15.90;7.70;;;12.20;99.90;;;;;;5035092;28;20193;-51
2021/04/18 09:45:10;;;;;;;14.33;8.53;;;12.70;1.00;;;;;;5026287;28;20297;-52
2021/04/18 09:47:37;;;;;;;16.87;8.00;;;13.10;1.00;;;;;;5032298;28;20262;-53
2021/04/18 09:50:07;;;;;;;12.53;7.73;;;13.50;1.00;;;;;;5027800;28;20194;-53
2021/04/18 09:52:38;;;;;;;13.80;8.43;;;13.40;99.90;;;;;;5027824;28;20211;-53
2021/04/18 09:55:22;;;;;;;13.70;8.03;;;13.30;1.00;;;;;;5026197;28;20329;-52
2021/04/18 09:57:54;;;;;;;13.73;8.60;;;13.00;99.90;;;;;;5027912;28;20219;-53
2021/04/18 10:00:36;;;;;;;13.83;9.30;;;13.20;3.10;;;;;;5028975;28;20597;-53
2021/04/18 10:03:11;;;;;;;16.00;9.37;;;13.20;1.00;;;;;;5030089;28;20205;-53
2021/04/18 10:05:57;;;;;;;15.77;9.13;;;13.50;99.90;;;;;;5026152;28;20202;-52
2021/04/18 10:08:23;;;;;;;13.10;7.60;;;13.30;92.00;;;;;;5029596;28;20237;-52
2021/04/18 10:11:12;;;;;;;14.90;9.07;;;13.10;93.10;;;;;;5023993;28;20203;-53
2021/04/18 10:13:42;;;;;;;16.37;9.43;;;13.40;1.00;;;;;;5029000;28;20418;-52
2021/04/18 10:16:45;;;;;;;18.93;9.47;;;13.80;99.90;;;;;;5030245;28;20215;-53
2021/04/18 10:19:21;;;;;;;14.60;7.97;;;13.70;1.00;;;;;;5031268;28;20678;-53
2021/04/18 10:22:03;;;;;;;10.67;6.60;;;14.00;92.20;;;;;;5021657;28;20542;-53
2021/04/18 10:24:36;;;;;;;13.53;7.53;;;13.70;91.80;;;;;;5031496;28;20226;-54
2021/04/18 10:27:06;;;;;;;14.80;7.37;;;13.80;93.40;;;;;;5033006;28;20274;-53
2021/04/18 10:29:34;;;;;;;13.93;8.23;;;13.90;92.50;;;;;;5034089;28;20277;-53
2021/04/18 10:32:00;;;;;;;13.63;7.23;;;14.00;92.80;;;;;;5026803;28;20319;-53
2021/04/18 10:34:27;;;;;;;14.63;7.23;;;13.90;92.20;;;;;;5026273;28;20262;-53
2021/04/18 10:36:54;;;;;;;13.13;8.10;;;14.00;91.80;;;;;;5024531;28;20224;-53
2021/04/18 10:39:22;;;;;;;14.87;8.33;;;14.70;86.60;;;;;;5030329;28;20294;-52
2021/04/18 10:41:50;;;;;;;16.60;8.73;;;14.80;79.30;;;;;;5023837;28;20207;-52
2021/04/18 10:44:17;;;;;;;10.80;5.43;;;14.70;73.10;;;;;;5025272;28;20235;-52
2021/04/18 10:46:44;;;;;;;13.37;7.90;;;15.00;66.10;;;;;;5026528;28;20200;-53
2021/04/18 10:49:11;;;;;;;13.93;7.67;;;14.70;76.60;;;;;;5028185;28;20650;-52
2021/04/18 10:51:37;;;;;;;12.87;7.30;;;15.20;67.20;;;;;;5030158;28;20249;-53
2021/04/18 10:54:04;;;;;;;13.50;7.00;;;15.50;69.10;;;;;;5028710;28;20281;-53
2021/04/18 10:56:31;;;;;;;13.13;6.90;;;15.30;66.90;;;;;;5024382;28;20323;-53
2021/04/18 10:58:58;;;;;;;12.93;6.03;;;15.00;64.40;;;;;;5026652;28;20205;-53
2021/04/18 11:01:25;;;;;;;9.73;5.33;;;15.10;60.20;;;;;;5026587;28;20245;-53
2021/04/18 11:03:53;;;;;;;8.13;4.50;;;15.30;59.20;;;;;;5029875;28;20199;-52
2021/04/18 11:06:19;;;;;;;8.10;4.50;;;15.30;54.70;;;;;;5032225;28;20224;-53
2021/04/18 11:08:46;;;;;;;5.07;3.30;;;15.90;49.20;;;;;;5027196;28;20228;-53
2021/04/18 11:11:13;;;;;;;6.60;4.03;;;15.60;37.10;;;;;;5032044;28;20229;-54
2021/04/18 11:13:39;;;;;;;6.47;3.60;;;15.80;37.90;;;;;;5025418;28;20636;-53
2021/04/18 11:16:07;;;;;;;5.80;3.80;;;16.00;38.30;;;;;;5029764;28;20289;-53
2021/04/18 11:18:34;;;;;;;7.83;4.70;;;16.00;35.00;;;;;;5031640;28;20959;-52
2021/04/18 11:21:01;;;;;;;8.63;4.57;;;16.10;42.30;;;;;;5028504;28;20587;-52
2021/04/18 11:23:28;;;;;;;11.37;4.97;;;16.30;40.90;;;;;;5032674;28;20356;-52
2021/04/18 11:25:54;;;;;;;6.93;4.67;;;16.30;37.60;;;;;;5039194;28;20196;-53
2021/04/18 11:28:21;;;;;;;6.73;4.97;;;16.80;44.30;;;;;;5029623;28;20198;-53
2021/04/18 11:30:47;;;;;;;5.43;3.77;;;16.50;38.60;;;;;;5026814;28;20198;-53
2021/04/18 11:33:13;;;;;;;6.60;4.00;;;16.40;38.90;;;;;;5028111;28;20644;-53
2021/04/18 11:35:41;;;;;;;6.20;3.70;;;16.80;34.10;;;;;;5029910;28;20615;-53
2021/04/18 11:38:08;;;;;;;7.87;4.33;;;16.80;35.70;;;;;;5031453;28;20284;-52
2021/04/18 11:40:37;;;;;;;10.00;4.17;;;17.00;37.20;;;;;;5032900;28;20232;-52
2021/04/18 11:43:04;;;;;;;4.83;4.07;;;17.10;36.00;;;;;;5030159;28;20250;-53
2021/04/18 11:45:30;;;;;;;7.07;4.67;;;17.10;34.80;;;;;;5033518;28;20191;-53
2021/04/18 11:47:57;;;;;;;7.63;4.90;;;16.90;35.50;;;;;;5038086;28;20935;-53
2021/04/18 11:50:24;;;;;;;5.07;3.57;;;17.40;35.70;;;;;;5036016;28;20542;-53
2021/04/18 11:52:51;;;;;;;6.20;3.57;;;17.20;36.60;;;;;;5032152;28;20317;-53
2021/04/18 11:55:20;;;;;;;6.03;4.63;;;17.10;32.10;;;;;;5028829;28;20648;-53
2021/04/18 11:57:46;;;;;;;3.93;3.23;;;16.80;34.90;;;;;;5027146;28;20221;-53
2021/04/18 12:00:13;;;;;;;6.80;4.30;;;16.60;31.70;;;;;;5026396;28;20200;-53
2021/04/18 12:02:40;;;;;;;5.47;3.63;;;17.20;33.50;;;;;;5035200;28;20203;-53
2021/04/18 12:05:13;;;;;;;8.10;3.93;;;17.60;31.10;;;;;;5034560;28;20211;-53
2021/04/18 12:07:39;;;;;;;4.70;3.77;;;17.50;31.30;;;;;;5032446;28;20694;-53
2021/04/18 12:10:08;;;;;;;6.23;3.57;;;17.60;32.30;;;;;;5047288;28;20565;-53
2021/04/18 12:12:35;;;;;;;5.43;3.73;;;17.70;30.00;;;;;;5040863;28;20565;-53
2021/04/18 12:15:02;;;;;;;5.57;3.80;;;18.20;28.20;;;;;;5034107;28;20237;-53
2021/04/18 12:17:28;;;;;;;6.70;4.13;;;17.90;30.00;;;;;;5028289;28;20227;-52
2021/04/18 12:19:55;;;;;;;5.30;3.67;;;17.60;31.00;;;;;;5032017;28;20201;-54
2021/04/18 12:22:21;;;;;;;7.37;4.13;;;18.00;30.60;;;;;;5030111;28;20279;-52
2021/04/18 12:24:47;;;;;;;5.80;3.60;;;18.00;27.50;;;;;;5035390;28;20208;-53
2021/04/18 12:27:14;;;;;;;5.47;3.90;;;18.50;29.10;;;;;;5038856;28;20606;-53
2021/04/18 12:29:43;;;;;;;7.20;4.20;;;18.70;26.80;;;;;;5034840;28;20206;-52
2021/04/18 12:32:09;;;;;;;5.83;3.33;;;18.00;28.60;;;;;;5040617;28;20482;-54
2021/04/18 12:34:36;;;;;;;4.93;3.60;;;18.40;28.30;;;;;;5041791;28;20718;-53
2021/04/18 12:37:02;;;;;;;5.57;3.73;;;18.30;28.90;;;;;;5034871;28;20676;-52
2021/04/18 12:39:28;;;;;;;6.87;4.00;;;18.70;27.00;;;;;;5027386;28;20190;-53
2021/04/18 12:41:55;;;;;;;8.70;3.60;;;18.40;26.50;;;;;;5036554;28;20298;-53
2021/04/18 12:44:22;;;;;;;9.73;4.40;;;18.10;26.40;;;;;;5037902;28;20556;-53
2021/04/18 12:46:48;;;;;;;4.63;3.60;;;18.30;23.90;;;;;;5036406;28;20288;-53
2021/04/18 12:49:15;;;;;;;5.87;4.00;;;18.80;24.40;;;;;;5038363;28;20686;-53
2021/04/18 12:51:42;;;;;;;5.63;3.83;;;18.30;25.70;;;;;;5035206;28;20294;-53
2021/04/18 12:54:08;;;;;;;4.27;3.60;;;18.80;24.50;;;;;;5029070;28;20212;-53
2021/04/18 12:56:35;;;;;;;6.53;3.97;;;19.30;24.40;;;;;;5027214;28;20329;-53
2021/04/18 12:59:03;;;;;;;4.40;3.60;;;18.50;24.80;;;;;;5026749;28;20203;-53